createdAt,value
2018-12-11T00:02:11.204Z,9.80
2018-12-11T00:04:44.772Z,9.45
2018-12-11T00:07:14.508Z,19.10
2018-12-11T00:09:46.940Z,11.35
2018-12-11T00:12:20.632Z,9.90
2018-12-11T00:14:50.391Z,16.40
2018-12-11T00:17:23.038Z,14.75
2018-12-11T00:19:56.840Z,22.45
2018-12-11T00:22:27.623Z,13.80
2018-12-11T00:24:57.372Z,17.48
2018-12-11T00:27:27.220Z,14.05
2018-12-11T00:29:56.060Z,16.67
2018-12-11T00:32:26.892Z,12.75
2018-12-11T00:35:04.641Z,16.27
2018-12-11T00:37:40.224Z,9.38
2018-12-11T00:40:09.108Z,10.25
2018-12-11T00:42:39.876Z,15.70
2018-12-11T00:45:10.648Z,9.78
2018-12-11T00:47:53.680Z,12.25
2018-12-11T00:50:23.476Z,20.82
2018-12-11T00:52:55.510Z,8.25
2018-12-11T00:55:26.364Z,9.75
2018-12-11T00:57:56.380Z,9.53
2018-12-11T01:00:26.973Z,18.98
2018-12-11T01:02:59.302Z,15.40
2018-12-11T01:05:31.860Z,12.15
2018-12-11T01:08:06.364Z,12.68
2018-12-11T01:10:37.100Z,9.20
2018-12-11T01:13:08.984Z,11.88
2018-12-11T01:15:38.808Z,10.75
2018-12-11T01:18:15.920Z,14.13
2018-12-11T01:20:44.784Z,7.22
2018-12-11T01:23:23.312Z,10.38
2018-12-11T01:25:54.140Z,12.40
2018-12-11T01:28:40.100Z,14.43
2018-12-11T01:31:08.932Z,15.43
2018-12-11T01:33:37.760Z,10.55
2018-12-11T01:36:08.574Z,14.28
2018-12-11T01:38:45.128Z,13.10
2018-12-11T01:41:24.768Z,16.48
2018-12-11T01:43:53.596Z,12.20
2018-12-11T01:46:27.614Z,12.63
2018-12-11T01:48:57.580Z,9.03
2018-12-11T01:51:30.120Z,11.60
2018-12-11T01:54:09.388Z,9.53
2018-12-11T01:56:44.566Z,7.72
2018-12-11T01:59:19.756Z,11.05
2018-12-11T02:01:58.217Z,11.40
2018-12-11T02:04:41.481Z,11.60
2018-12-11T02:07:10.325Z,9.48
2018-12-11T02:09:39.101Z,13.62
2018-12-11T02:12:08.829Z,12.60
2018-12-11T02:14:47.613Z,9.68
2018-12-11T02:17:23.388Z,13.70
2018-12-11T02:19:58.057Z,12.35
2018-12-11T02:22:34.693Z,10.63
2018-12-11T02:25:17.845Z,9.23
2018-12-11T02:27:53.489Z,12.73
2018-12-11T02:30:23.194Z,16.67
2018-12-11T02:32:53.016Z,12.53
2018-12-11T02:35:22.842Z,11.05
2018-12-11T02:37:52.615Z,10.10
2018-12-11T02:40:33.162Z,6.72
2018-12-11T02:43:02.909Z,4.55
2018-12-11T02:45:35.466Z,9.68
2018-12-11T02:48:05.995Z,11.93
2018-12-11T02:50:38.158Z,15.38
2018-12-11T02:53:08.999Z,13.58
2018-12-11T02:55:37.833Z,10.85
2018-12-11T02:58:06.698Z,14.75
2018-12-11T03:00:37.494Z,7.10
2018-12-11T03:03:08.258Z,7.97
2018-12-11T03:08:27.658Z,7.37
2018-12-11T03:10:56.486Z,14.03
2018-12-11T03:13:26.216Z,13.90
2018-12-11T03:15:57.042Z,10.45
2018-12-11T03:18:25.830Z,7.35
2018-12-11T03:21:01.819Z,19.82
2018-12-11T03:23:47.158Z,9.18
2018-12-11T03:26:17.929Z,5.17
2018-12-11T03:28:46.746Z,7.97
2018-12-11T03:31:15.512Z,8.13
2018-12-11T03:34:08.545Z,13.60
2018-12-11T03:36:42.802Z,10.93
2018-12-11T03:39:16.963Z,12.15
2018-12-11T03:42:17.421Z,7.53
2018-12-11T03:44:48.176Z,12.30
2018-12-11T03:47:17.998Z,6.85
2018-12-11T03:50:01.443Z,7.67
2018-12-11T03:52:32.264Z,8.33
2018-12-11T03:55:01.131Z,5.05
2018-12-11T03:57:59.504Z,8.75
2018-12-11T04:00:39.515Z,5.42
2018-12-11T04:03:08.294Z,7.58
2018-12-11T04:05:54.740Z,11.63
2018-12-11T04:08:30.599Z,8.98
2018-12-11T04:11:04.288Z,12.33
2018-12-11T04:13:33.114Z,7.33
2018-12-11T04:16:05.733Z,5.67
2018-12-11T04:18:39.647Z,4.83
2018-12-11T04:21:19.154Z,7.92
2018-12-11T04:23:48.902Z,8.18
2018-12-11T04:26:17.776Z,3.72
2018-12-11T04:28:46.583Z,7.92
2018-12-11T04:31:16.274Z,8.53
2018-12-11T04:33:50.230Z,7.37
2018-12-11T04:36:30.528Z,8.48
2018-12-11T04:39:06.612Z,9.25
2018-12-11T04:42:06.310Z,7.25
2018-12-11T04:44:37.063Z,8.23
2018-12-11T04:47:09.524Z,9.60
2018-12-11T04:49:49.046Z,8.98
2018-12-11T04:52:19.830Z,8.83
2018-12-11T04:54:48.650Z,10.80
2018-12-11T04:57:26.087Z,9.68
2018-12-11T04:59:58.126Z,9.83
2018-12-11T05:02:39.699Z,5.05
2018-12-11T05:05:08.714Z,8.25
2018-12-11T05:07:37.495Z,8.35
2018-12-11T05:10:17.840Z,6.60
2018-12-11T05:12:46.830Z,8.73
2018-12-11T05:15:21.285Z,18.12
2018-12-11T05:21:45.158Z,8.63
2018-12-11T05:24:17.238Z,8.40
2018-12-11T05:26:48.003Z,5.90
2018-12-11T05:29:38.872Z,6.35
2018-12-11T05:32:08.602Z,8.08
2018-12-11T05:34:38.311Z,13.10
2018-12-11T05:37:08.146Z,15.65
2018-12-11T05:39:38.855Z,17.75
2018-12-11T05:42:08.590Z,11.75
2018-12-11T05:44:39.386Z,9.78
2018-12-11T05:47:09.087Z,4.25
2018-12-11T05:49:41.361Z,12.23
2018-12-11T05:52:25.454Z,8.53
2018-12-11T05:54:54.279Z,8.33
2018-12-11T05:57:24.055Z,11.48
2018-12-11T05:59:53.830Z,12.47
2018-12-11T06:02:22.600Z,9.85
2018-12-11T06:04:54.668Z,10.20
2018-12-11T06:07:28.362Z,7.78
2018-12-11T06:10:00.146Z,6.05
2018-12-11T06:12:32.018Z,14.78
2018-12-11T06:15:02.782Z,5.28
2018-12-11T06:17:33.586Z,6.00
2018-12-11T06:20:04.890Z,8.25
2018-12-11T06:22:39.110Z,6.45
2018-12-11T06:25:08.903Z,7.60
2018-12-11T06:27:39.738Z,18.42
2018-12-11T06:30:09.514Z,8.25
2018-12-11T06:32:44.706Z,8.45
2018-12-11T06:35:14.569Z,13.03
2018-12-11T06:37:43.435Z,7.40
2018-12-11T06:40:17.159Z,4.42
2018-12-11T06:42:49.802Z,10.35
2018-12-11T06:45:22.373Z,11.95
2018-12-11T06:47:53.205Z,5.53
2018-12-11T06:50:41.594Z,9.88
2018-12-11T06:53:17.505Z,10.55
2018-12-11T06:55:49.497Z,7.58
2018-12-11T06:58:37.442Z,9.20
2018-12-11T07:01:07.253Z,12.88
2018-12-11T07:03:36.081Z,8.28
2018-12-11T07:06:05.877Z,9.58
2018-12-11T07:08:47.858Z,5.33
2018-12-11T07:11:27.485Z,12.63
2018-12-11T07:13:56.906Z,12.25
2018-12-11T07:16:31.289Z,12.50
2018-12-11T07:19:01.023Z,8.55
2018-12-11T07:21:29.901Z,7.55
2018-12-11T07:24:04.836Z,7.42
2018-12-11T07:26:48.472Z,8.90
2018-12-11T07:29:25.584Z,11.53
2018-12-11T07:31:55.304Z,5.72
2018-12-11T07:34:24.148Z,5.33
2018-12-11T07:36:53.944Z,7.80
2018-12-11T07:39:24.792Z,15.05
2018-12-11T07:41:59.244Z,8.73
2018-12-11T07:44:31.016Z,9.23
2018-12-11T07:47:03.817Z,9.63
2018-12-11T07:49:39.172Z,10.48
2018-12-11T07:52:07.992Z,10.60
2018-12-11T07:54:36.804Z,11.73
2018-12-11T07:57:16.343Z,15.38
2018-12-11T07:59:46.099Z,6.78
2018-12-11T08:02:15.837Z,12.25
2018-12-11T08:04:50.536Z,6.30
2018-12-11T08:07:23.352Z,8.33
2018-12-11T08:09:57.918Z,7.12
2018-12-11T08:12:31.695Z,12.18
2018-12-11T08:15:07.240Z,13.62
2018-12-11T08:18:07.053Z,7.72
2018-12-11T08:20:45.656Z,5.58
2018-12-11T08:23:16.336Z,5.53
2018-12-11T08:25:45.131Z,13.00
2018-12-11T08:28:14.807Z,13.10
2018-12-11T08:30:47.756Z,7.28
2018-12-11T08:33:20.693Z,9.05
2018-12-11T08:35:49.782Z,13.70
2018-12-11T08:38:19.544Z,7.50
2018-12-11T08:40:51.824Z,6.22
2018-12-11T08:43:24.272Z,11.65
2018-12-11T08:45:55.888Z,6.92
2018-12-11T08:48:25.640Z,6.05
2018-12-11T08:51:00.220Z,8.83
2018-12-11T08:53:45.560Z,9.35
2018-12-11T08:56:14.406Z,8.63
2018-12-11T08:58:50.292Z,6.35
2018-12-11T09:01:39.292Z,4.75
2018-12-11T09:04:08.068Z,9.58
2018-12-11T09:06:36.877Z,12.85
2018-12-11T09:09:06.764Z,17.07
2018-12-11T09:11:36.500Z,4.42
2018-12-11T09:14:08.724Z,11.28
2018-12-11T09:16:54.928Z,6.72
2018-12-11T09:19:41.677Z,13.70
2018-12-11T09:22:10.457Z,14.83
2018-12-11T09:24:57.900Z,11.83
2018-12-11T09:27:27.568Z,7.67
2018-12-11T09:30:08.124Z,10.28
2018-12-11T09:35:49.101Z,8.28
2018-12-11T09:38:18.772Z,12.43
2018-12-11T09:40:48.364Z,7.62
2018-12-11T09:43:36.364Z,5.78
2018-12-11T09:46:07.096Z,8.10
2018-12-11T09:48:41.416Z,9.23
2018-12-11T09:51:30.684Z,7.05
2018-12-11T09:54:04.908Z,6.10
2018-12-11T09:56:39.404Z,13.53
2018-12-11T09:59:08.232Z,9.20
2018-12-11T10:01:37.030Z,5.92
2018-12-11T10:04:05.844Z,6.20
2018-12-11T10:06:35.740Z,7.12
2018-12-11T10:09:07.881Z,7.45
2018-12-11T10:11:37.656Z,7.92
2018-12-11T10:14:09.049Z,7.37
2018-12-11T10:16:38.744Z,4.92
2018-12-11T10:19:07.545Z,7.25
2018-12-11T10:21:37.291Z,7.53
2018-12-11T10:24:06.127Z,7.80
2018-12-11T10:26:35.002Z,8.20
2018-12-11T10:29:03.833Z,4.60
2018-12-11T10:31:40.625Z,8.00
2018-12-11T10:34:34.820Z,11.65
2018-12-11T10:37:03.677Z,6.58
2018-12-11T10:39:51.581Z,12.25
2018-12-11T10:42:22.328Z,12.28
2018-12-11T10:44:58.171Z,6.85
2018-12-11T10:47:43.602Z,10.50
2018-12-11T10:50:27.316Z,7.15
2018-12-11T10:52:56.093Z,5.92
2018-12-11T10:55:30.148Z,7.53
2018-12-11T10:58:06.720Z,7.90
2018-12-11T11:00:48.380Z,7.22
2018-12-11T11:03:18.093Z,4.17
2018-12-11T11:05:53.697Z,6.40
2018-12-11T11:08:24.429Z,9.18
2018-12-11T11:10:57.348Z,7.00
2018-12-11T11:16:32.697Z,4.78
2018-12-11T11:19:02.457Z,8.00
2018-12-11T11:21:40.957Z,6.28
2018-12-11T11:24:26.389Z,6.65
2018-12-11T11:27:00.673Z,2.90
2018-12-11T11:29:31.289Z,4.47
2018-12-11T11:32:02.997Z,3.22
2018-12-11T11:34:48.249Z,8.63
2018-12-11T11:37:17.034Z,6.55
2018-12-11T11:39:48.969Z,3.52
2018-12-11T11:42:23.505Z,3.27
2018-12-11T11:44:59.181Z,12.70
2018-12-11T11:47:28.045Z,6.47
2018-12-11T11:49:56.890Z,4.40
2018-12-11T11:52:25.834Z,8.68
2018-12-11T11:55:06.193Z,5.25
2018-12-11T11:57:39.097Z,6.70
2018-12-11T12:00:12.161Z,6.45
2018-12-11T12:02:54.850Z,5.37
2018-12-11T12:05:33.997Z,6.25
2018-12-11T12:08:06.062Z,4.85
2018-12-11T12:10:48.181Z,5.55
2018-12-11T12:13:31.853Z,5.47
2018-12-11T12:16:06.279Z,11.35
2018-12-11T12:19:03.250Z,4.50
2018-12-11T12:21:32.026Z,10.23
2018-12-11T12:24:00.898Z,6.05
2018-12-11T12:26:30.854Z,6.90
2018-12-11T12:29:01.579Z,5.72
2018-12-11T12:31:56.465Z,7.42
2018-12-11T12:34:30.955Z,6.85
2018-12-11T12:36:59.783Z,8.50
2018-12-11T12:39:34.274Z,4.50
2018-12-11T12:42:06.143Z,5.05
2018-12-11T12:44:35.844Z,9.25
2018-12-11T12:47:06.598Z,5.95
2018-12-11T12:49:35.418Z,7.30
2018-12-11T12:52:06.822Z,6.75
2018-12-11T12:54:35.634Z,5.78
2018-12-11T12:57:06.382Z,7.58
2018-12-11T12:59:40.953Z,6.97
2018-12-11T13:02:24.502Z,8.65
2018-12-11T13:05:06.018Z,5.83
2018-12-11T13:07:34.838Z,3.62
2018-12-11T13:10:04.272Z,4.25
2018-12-11T13:12:35.082Z,10.20
2018-12-11T13:15:07.288Z,5.60
2018-12-11T13:17:39.685Z,10.18
2018-12-11T13:20:08.511Z,3.87
2018-12-11T13:22:38.909Z,5.85
2018-12-11T13:25:07.750Z,4.42
2018-12-11T13:27:39.741Z,5.60
2018-12-11T13:30:19.049Z,4.85
2018-12-11T13:32:47.910Z,4.70
2018-12-11T13:35:27.369Z,5.78
2018-12-11T13:38:03.925Z,7.70
2018-12-11T13:40:32.929Z,5.85
2018-12-11T13:43:05.897Z,6.05
2018-12-11T13:45:38.665Z,5.75
2018-12-11T13:48:07.525Z,4.92
2018-12-11T13:50:54.345Z,7.42
2018-12-11T13:53:28.453Z,8.50
2018-12-11T13:55:59.193Z,6.70
2018-12-11T13:58:27.986Z,6.03
2018-12-11T14:01:01.474Z,6.87
2018-12-11T14:03:38.873Z,8.35
2018-12-11T14:06:08.593Z,5.47
2018-12-11T14:08:48.279Z,7.10
2018-12-11T14:11:19.001Z,5.10
2018-12-11T14:13:48.769Z,5.75
2018-12-11T14:16:20.649Z,9.93
2018-12-11T14:18:49.442Z,8.13
2018-12-11T14:21:31.469Z,9.35
2018-12-11T14:24:00.237Z,7.65
2018-12-11T14:26:41.909Z,5.67
2018-12-11T14:29:11.577Z,7.53
2018-12-11T14:31:40.408Z,7.08
2018-12-11T14:34:09.281Z,8.78
2018-12-11T14:36:59.058Z,13.03
2018-12-11T14:39:27.899Z,5.75
2018-12-11T14:42:03.146Z,8.05
2018-12-11T14:47:33.121Z,8.43
2018-12-11T14:50:06.827Z,9.75
2018-12-11T14:52:35.657Z,10.05
2018-12-11T14:55:05.645Z,8.75
2018-12-11T14:57:36.422Z,9.50
2018-12-11T15:00:08.511Z,8.15
2018-12-11T15:03:04.346Z,8.83
2018-12-11T15:05:50.973Z,12.70
2018-12-11T15:08:20.797Z,13.78
2018-12-11T15:10:49.721Z,13.28
2018-12-11T15:13:20.433Z,12.95
2018-12-11T15:15:49.257Z,12.58
2018-12-11T15:18:19.984Z,15.53
2018-12-11T15:20:49.749Z,8.95
2018-12-11T15:23:19.505Z,8.80
2018-12-11T15:25:58.789Z,11.38
2018-12-11T15:28:33.725Z,11.70
2018-12-11T15:31:10.377Z,17.05
2018-12-11T15:33:40.207Z,10.30
2018-12-11T15:36:15.421Z,8.10
2018-12-11T15:38:48.081Z,13.75
2018-12-11T15:41:17.780Z,13.58
2018-12-11T15:43:46.589Z,6.70
2018-12-11T15:46:22.125Z,16.30
2018-12-11T15:48:57.366Z,14.40
2018-12-11T15:51:57.581Z,11.88
2018-12-11T15:54:27.385Z,10.30
2018-12-11T15:57:02.961Z,9.88
2018-12-11T15:59:37.677Z,10.50
2018-12-11T16:02:23.986Z,13.65
2018-12-11T16:04:56.429Z,11.15
2018-12-11T16:07:28.337Z,13.98
2018-12-11T16:09:58.221Z,13.03
2018-12-11T16:12:26.953Z,9.23
2018-12-11T16:14:55.773Z,14.28
2018-12-11T16:17:28.489Z,10.40
2018-12-11T16:19:59.174Z,11.88
2018-12-11T16:22:31.593Z,13.62
2018-12-11T16:25:00.798Z,9.23
2018-12-11T16:27:30.870Z,12.95
2018-12-11T16:29:59.979Z,6.17
2018-12-11T16:32:30.840Z,9.88
2018-12-11T16:35:05.586Z,10.48
2018-12-11T16:37:35.502Z,6.60
2018-12-11T16:40:05.675Z,8.20
2018-12-11T16:42:38.182Z,12.60
2018-12-11T16:45:08.172Z,9.48
2018-12-11T16:47:42.391Z,15.53
2018-12-11T16:50:15.098Z,9.38
2018-12-11T16:52:51.398Z,10.43
2018-12-11T16:55:20.254Z,12.40
2018-12-11T16:57:53.099Z,11.33
2018-12-11T17:00:25.898Z,9.00
2018-12-11T17:02:55.570Z,7.10
2018-12-11T17:05:29.734Z,10.03
2018-12-11T17:08:05.995Z,11.93
2018-12-11T17:10:56.225Z,6.97
2018-12-11T17:13:42.639Z,6.87
2018-12-11T17:16:31.942Z,14.43
2018-12-11T17:19:02.683Z,9.08
2018-12-11T17:21:46.905Z,17.35
2018-12-11T17:24:12.711Z,11.70
2018-12-11T17:26:48.854Z,8.58
2018-12-11T17:29:24.191Z,14.47
2018-12-11T17:31:50.535Z,9.50
2018-12-11T17:34:24.897Z,16.42
2018-12-11T17:36:54.652Z,24.45
2018-12-11T17:39:23.523Z,14.87
2018-12-11T17:41:57.027Z,18.10
2018-12-11T17:44:25.807Z,18.35
2018-12-11T17:46:55.495Z,10.72
2018-12-11T17:49:26.218Z,13.25
2018-12-11T17:51:58.836Z,11.55
2018-12-11T17:54:28.603Z,14.43
2018-12-11T17:56:58.327Z,7.87
2018-12-11T17:59:27.107Z,9.85
2018-12-11T18:02:02.872Z,9.33
2018-12-11T18:04:31.649Z,6.90
2018-12-11T18:07:00.481Z,7.97
2018-12-11T18:09:29.304Z,8.95
2018-12-11T18:12:04.739Z,10.28
2018-12-11T18:14:34.555Z,8.25
2018-12-11T18:17:04.420Z,8.70
2018-12-11T18:19:40.699Z,9.68
2018-12-11T18:22:10.455Z,7.40
2018-12-11T18:24:39.294Z,8.40
2018-12-11T18:27:11.268Z,10.43
2018-12-11T18:29:40.100Z,11.97
2018-12-11T18:32:10.459Z,7.92
2018-12-11T18:34:47.690Z,10.60
2018-12-11T18:37:18.488Z,8.80
2018-12-11T18:39:47.288Z,8.20
2018-12-11T18:42:16.124Z,18.65
2018-12-11T18:44:44.915Z,11.18
2018-12-11T18:47:17.228Z,8.85
2018-12-11T18:49:46.016Z,9.90
2018-12-11T18:52:15.804Z,11.57
2018-12-11T18:54:44.656Z,13.98
2018-12-11T18:57:14.368Z,12.63
2018-12-11T18:59:43.196Z,8.33
2018-12-11T19:02:13.937Z,10.60
2018-12-11T19:04:43.801Z,15.55
2018-12-11T19:07:15.098Z,10.60
2018-12-11T19:09:44.868Z,11.70
2018-12-11T19:12:13.704Z,14.50
2018-12-11T19:14:43.196Z,12.93
2018-12-11T19:17:12.968Z,10.35
2018-12-11T19:19:41.836Z,15.15
2018-12-11T19:22:15.252Z,8.05
2018-12-11T19:24:46.019Z,9.10
2018-12-11T19:27:20.104Z,8.30
2018-12-11T19:29:48.947Z,10.90
2018-12-11T19:32:21.115Z,9.50
2018-12-11T19:34:49.936Z,14.30
2018-12-11T19:37:18.771Z,9.35
2018-12-11T19:39:51.272Z,11.78
2018-12-11T19:42:24.840Z,10.15
2018-12-11T19:44:53.696Z,16.23
2018-12-11T19:47:23.715Z,10.35
2018-12-11T19:49:58.079Z,8.88
2018-12-11T19:52:28.919Z,9.80
2018-12-11T19:54:58.675Z,10.30
2018-12-11T19:57:27.527Z,10.95
2018-12-11T20:00:03.151Z,15.18
2018-12-11T20:02:33.015Z,12.50
2018-12-11T20:05:01.859Z,12.58
2018-12-11T20:07:34.495Z,19.57
2018-12-11T20:10:11.327Z,16.73
2018-12-11T20:12:41.032Z,10.43
2018-12-11T20:15:13.359Z,15.70
2018-12-11T20:17:42.179Z,16.80
2018-12-11T20:20:22.574Z,12.05
2018-12-11T20:22:53.490Z,11.08
2018-12-11T20:25:22.306Z,11.53
2018-12-11T20:27:51.123Z,11.53
2018-12-11T20:30:21.879Z,19.57
2018-12-11T20:32:51.745Z,19.00
2018-12-11T20:35:20.570Z,17.23
2018-12-11T20:37:50.386Z,14.05
2018-12-11T20:40:21.242Z,15.60
2018-12-11T20:42:50.087Z,14.43
2018-12-11T20:45:21.868Z,11.00
2018-12-11T20:47:52.731Z,19.65
2018-12-11T20:50:21.602Z,20.23
2018-12-11T20:52:53.846Z,15.13
2018-12-11T20:55:24.589Z,12.85
2018-12-11T20:57:54.419Z,12.33
2018-12-11T21:00:23.202Z,16.57
2018-12-11T21:02:54.029Z,16.85
2018-12-11T21:05:23.858Z,19.75
2018-12-11T21:07:53.614Z,14.80
2018-12-11T21:10:23.366Z,12.35
2018-12-11T21:12:52.214Z,17.67
2018-12-11T21:15:25.992Z,10.25
2018-12-11T21:17:54.772Z,16.60
2018-12-11T21:20:23.618Z,14.25
2018-12-11T21:22:53.435Z,24.92
2018-12-11T21:25:25.914Z,17.40
2018-12-11T21:27:56.653Z,18.75
2018-12-11T21:30:26.494Z,16.95
2018-12-11T21:32:56.270Z,14.87
2018-12-11T21:35:27.742Z,14.18
2018-12-11T21:37:56.622Z,16.30
2018-12-11T21:40:27.318Z,12.47
2018-12-11T21:42:59.920Z,23.02
2018-12-11T21:45:29.858Z,15.23
2018-12-11T21:47:58.698Z,13.10
2018-12-11T21:50:30.346Z,14.10
2018-12-11T21:52:59.171Z,22.37
2018-12-11T21:55:30.919Z,22.60
2018-12-11T21:58:03.963Z,25.60
2018-12-11T22:00:32.798Z,17.37
2018-12-11T22:03:01.644Z,14.38
2018-12-11T22:05:31.494Z,15.98
2018-12-11T22:08:01.275Z,15.20
2018-12-11T22:10:30.987Z,15.30
2018-12-11T22:13:00.690Z,15.63
2018-12-11T22:15:33.992Z,13.93
2018-12-11T22:18:03.735Z,14.83
2018-12-11T22:20:37.235Z,17.75
2018-12-11T22:23:13.627Z,16.60
2018-12-11T22:25:44.402Z,15.55
2018-12-11T22:28:13.192Z,18.67
2018-12-11T22:30:58.611Z,19.35
2018-12-11T22:33:33.019Z,15.75
2018-12-11T22:36:05.563Z,16.77
2018-12-11T22:38:34.399Z,18.52
2018-12-11T22:41:03.223Z,21.85
2018-12-11T22:43:32.955Z,23.22
2018-12-11T22:46:02.071Z,17.20
2018-12-11T22:48:30.995Z,14.58
2018-12-11T22:51:04.542Z,25.52
2018-12-11T22:53:33.343Z,16.95
2018-12-11T22:56:02.187Z,20.05
2018-12-11T22:58:31.082Z,26.50
2018-12-11T23:00:59.986Z,22.02
2018-12-11T23:03:29.794Z,17.07
2018-12-11T23:05:58.638Z,18.27
2018-12-11T23:08:31.670Z,19.00
2018-12-11T23:11:00.579Z,15.35
2018-12-11T23:13:34.166Z,15.23
2018-12-11T23:16:04.071Z,19.23
2018-12-11T23:18:32.894Z,16.23
2018-12-11T23:21:02.294Z,18.00
2018-12-11T23:23:31.147Z,21.23
2018-12-11T23:25:59.970Z,24.92
2018-12-11T23:28:34.543Z,21.37
2018-12-11T23:31:03.435Z,21.20
2018-12-11T23:33:40.191Z,20.17
2018-12-11T23:36:11.027Z,19.92
2018-12-11T23:38:41.830Z,19.73
2018-12-11T23:41:10.757Z,25.27
2018-12-11T23:43:39.671Z,18.92
2018-12-11T23:46:15.751Z,23.73
2018-12-11T23:48:47.711Z,17.85
2018-12-11T23:51:17.532Z,26.90
2018-12-11T23:53:47.327Z,21.82
2018-12-11T23:56:18.392Z,26.40
2018-12-11T23:58:47.243Z,24.70
